createdAt,value
2022-08-25T00:02:21.848Z,7.68
2022-08-25T00:05:18.865Z,8.02
2022-08-25T00:08:16.071Z,7.85
2022-08-25T00:11:21.072Z,7.57
2022-08-25T00:14:36.938Z,7.72
2022-08-25T00:17:33.858Z,7.93
2022-08-25T00:20:31.269Z,7.68
2022-08-25T00:23:28.127Z,8.10
2022-08-25T00:26:26.559Z,8.38
2022-08-25T00:29:26.310Z,8.55
2022-08-25T00:32:24.476Z,8.20
2022-08-25T00:35:21.595Z,7.60
2022-08-25T00:38:18.498Z,8.30
2022-08-25T00:41:21.761Z,8.05
2022-08-25T00:44:19.705Z,8.68
2022-08-25T00:47:17.596Z,8.52
2022-08-25T00:50:15.760Z,8.63
2022-08-25T00:53:13.404Z,8.77
2022-08-25T00:56:12.993Z,9.23
2022-08-25T00:59:10.695Z,9.57
2022-08-25T01:02:13.633Z,8.68
2022-08-25T01:05:11.109Z,8.63
2022-08-25T01:08:09.324Z,8.50
2022-08-25T01:11:10.807Z,9.05
2022-08-25T01:14:09.507Z,8.57
2022-08-25T01:17:06.387Z,9.20
2022-08-25T01:20:03.988Z,8.60
2022-08-25T01:23:01.611Z,8.35
2022-08-25T01:26:21.136Z,8.85
2022-08-25T01:29:27.912Z,7.82
2022-08-25T01:32:25.327Z,8.93
2022-08-25T01:35:22.168Z,9.60
2022-08-25T01:38:20.871Z,8.50
2022-08-25T01:41:40.139Z,9.07
2022-08-25T01:44:45.299Z,9.13
2022-08-25T01:47:42.179Z,8.82
2022-08-25T01:50:40.540Z,10.05
2022-08-25T01:53:37.370Z,8.75
2022-08-25T01:56:34.287Z,10.13
2022-08-25T01:59:31.146Z,9.85
2022-08-25T02:02:28.219Z,9.50
2022-08-25T02:05:28.374Z,9.30
2022-08-25T02:08:29.577Z,10.32
2022-08-25T02:11:27.068Z,10.55
2022-08-25T02:14:24.176Z,10.40
2022-08-25T02:17:21.095Z,9.98
2022-08-25T02:20:18.045Z,10.35
2022-08-25T02:23:15.503Z,10.77
2022-08-25T02:26:16.652Z,11.02
2022-08-25T02:29:13.626Z,10.85
2022-08-25T02:32:10.473Z,10.65
2022-08-25T02:35:08.882Z,11.10
2022-08-25T02:38:06.744Z,10.95
2022-08-25T02:41:19.628Z,10.32
2022-08-25T02:44:16.470Z,10.57
2022-08-25T02:47:13.305Z,10.88
2022-08-25T02:50:10.828Z,10.82
2022-08-25T02:53:07.668Z,10.18
2022-08-25T02:56:04.614Z,11.07
2022-08-25T02:59:02.816Z,10.45
2022-08-25T03:01:59.677Z,10.93
2022-08-25T03:04:57.218Z,10.75
2022-08-25T03:07:54.149Z,10.77
2022-08-25T03:10:52.068Z,10.85
2022-08-25T03:13:52.035Z,11.23
2022-08-25T03:16:49.025Z,11.27
2022-08-25T03:19:46.567Z,10.85
2022-08-25T03:22:43.786Z,10.57
2022-08-25T03:26:00.644Z,11.20
2022-08-25T03:28:59.226Z,10.70
2022-08-25T03:31:58.272Z,10.98
2022-08-25T03:34:55.232Z,11.85
2022-08-25T03:37:57.011Z,11.80
2022-08-25T03:40:54.173Z,11.30
2022-08-25T03:43:51.486Z,11.88
2022-08-25T03:46:51.935Z,12.60
2022-08-25T03:49:48.820Z,11.18
2022-08-25T03:52:51.425Z,11.20
2022-08-25T03:55:48.521Z,12.02
2022-08-25T03:58:45.821Z,12.02
2022-08-25T04:01:45.620Z,12.55
2022-08-25T04:04:42.539Z,11.77
2022-08-25T04:07:39.643Z,11.35
2022-08-25T04:10:37.815Z,11.45
2022-08-25T04:13:36.750Z,13.07
2022-08-25T04:16:35.726Z,11.32
2022-08-25T04:19:32.585Z,12.45
2022-08-25T04:22:31.054Z,13.05
2022-08-25T04:25:29.300Z,12.15
2022-08-25T04:28:26.270Z,12.30
2022-08-25T04:31:23.822Z,11.60
2022-08-25T04:34:29.942Z,12.63
2022-08-25T04:37:28.174Z,12.95
2022-08-25T04:40:29.065Z,12.95
2022-08-25T04:43:26.193Z,11.75
2022-08-25T04:46:26.860Z,12.65
2022-08-25T04:52:20.817Z,13.05
2022-08-25T04:55:18.220Z,12.90
2022-08-25T04:58:17.117Z,12.70
2022-08-25T05:01:18.383Z,12.80
2022-08-25T05:04:28.390Z,12.07
2022-08-25T05:07:25.895Z,12.65
2022-08-25T05:10:23.407Z,12.95
2022-08-25T05:13:23.423Z,12.65
2022-08-25T05:16:24.641Z,12.55
2022-08-25T05:19:22.770Z,12.57
2022-08-25T05:22:19.612Z,13.00
2022-08-25T05:25:16.551Z,13.02
2022-08-25T05:28:14.775Z,12.82
2022-08-25T05:31:14.084Z,13.45
2022-08-25T05:34:12.110Z,13.32
2022-08-25T05:37:12.021Z,14.00
2022-08-25T05:40:10.288Z,13.15
2022-08-25T05:43:07.200Z,13.43
2022-08-25T05:46:04.301Z,13.93
2022-08-25T05:49:01.934Z,12.68
2022-08-25T05:51:59.260Z,13.13
2022-08-25T05:54:56.126Z,13.05
2022-08-25T05:57:52.973Z,13.32
2022-08-25T06:00:51.240Z,12.52
2022-08-25T06:03:49.282Z,12.95
2022-08-25T06:06:46.848Z,13.15
2022-08-25T06:09:45.989Z,13.05
2022-08-25T06:12:44.886Z,13.05
2022-08-25T06:15:41.781Z,11.43
2022-08-25T06:18:38.655Z,12.98
2022-08-25T06:21:37.336Z,11.52
2022-08-25T06:24:34.369Z,13.30
2022-08-25T06:27:31.531Z,13.20
2022-08-25T06:30:29.078Z,14.18
2022-08-25T06:33:27.031Z,12.77
2022-08-25T06:36:24.116Z,13.18
2022-08-25T06:39:22.181Z,12.43
2022-08-25T06:42:19.420Z,14.23
2022-08-25T06:45:16.571Z,13.35
2022-08-25T06:48:13.534Z,14.27
2022-08-25T06:51:14.908Z,14.27
2022-08-25T06:54:12.259Z,11.88
2022-08-25T06:57:09.493Z,12.60
2022-08-25T07:00:10.599Z,13.15
2022-08-25T07:03:09.274Z,12.63
2022-08-25T07:06:08.511Z,12.05
2022-08-25T07:09:09.260Z,12.52
2022-08-25T07:12:06.738Z,11.50
2022-08-25T07:15:19.503Z,12.80
2022-08-25T07:18:17.158Z,12.10
2022-08-25T07:21:15.570Z,11.68
2022-08-25T07:24:14.529Z,12.75
2022-08-25T07:27:11.482Z,11.48
2022-08-25T07:30:09.948Z,11.43
2022-08-25T07:33:11.332Z,10.20
2022-08-25T07:36:08.606Z,9.82
2022-08-25T07:39:06.377Z,9.65
2022-08-25T07:42:03.453Z,8.98
2022-08-25T07:45:00.337Z,9.63
2022-08-25T07:48:04.623Z,11.25
2022-08-25T07:51:08.781Z,8.40
2022-08-25T07:54:06.268Z,10.07
2022-08-25T07:57:04.836Z,7.88
2022-08-25T08:00:02.076Z,9.05
2022-08-25T08:03:08.058Z,8.10
2022-08-25T08:06:13.259Z,9.35
2022-08-25T08:09:12.030Z,8.43
2022-08-25T08:12:09.474Z,8.50
2022-08-25T08:15:10.295Z,9.85
2022-08-25T08:18:07.562Z,8.02
2022-08-25T08:21:04.704Z,8.15
2022-08-25T08:24:02.074Z,8.73
2022-08-25T08:27:02.716Z,8.02
2022-08-25T08:29:59.607Z,7.20
2022-08-25T08:33:12.855Z,7.60
2022-08-25T08:36:12.488Z,7.45
2022-08-25T08:39:09.452Z,6.28
2022-08-25T08:42:29.930Z,7.13
2022-08-25T08:45:40.208Z,8.30
2022-08-25T08:49:02.071Z,9.05
2022-08-25T08:52:03.073Z,9.02
2022-08-25T08:55:07.738Z,8.80
2022-08-25T08:58:26.559Z,6.57
2022-08-25T09:01:54.112Z,7.50
2022-08-25T09:05:03.723Z,7.35
2022-08-25T09:08:07.562Z,5.88
2022-08-25T09:11:50.402Z,7.15
2022-08-25T09:15:13.325Z,7.00
2022-08-25T09:18:39.010Z,7.32
2022-08-25T09:21:57.319Z,6.30
2022-08-25T09:25:39.646Z,5.95
2022-08-25T09:28:51.372Z,7.05
2022-08-25T09:31:49.558Z,6.43
2022-08-25T09:34:50.266Z,6.90
2022-08-25T09:41:01.721Z,6.95
2022-08-25T09:43:58.567Z,6.10
2022-08-25T09:47:13.802Z,7.07
2022-08-25T09:50:18.462Z,7.18
2022-08-25T09:53:18.598Z,5.75
2022-08-25T09:59:35.239Z,6.03
2022-08-25T10:02:32.862Z,6.43
2022-08-25T10:05:35.122Z,6.07
2022-08-25T10:08:40.795Z,6.90
2022-08-25T10:11:45.057Z,5.72
2022-08-25T10:14:44.233Z,6.65
2022-08-25T10:17:41.922Z,6.57
2022-08-25T10:20:38.833Z,6.18
2022-08-25T10:23:51.619Z,6.65
2022-08-25T10:27:39.244Z,7.05
2022-08-25T10:31:06.988Z,6.57
2022-08-25T10:37:32.982Z,5.93
2022-08-25T10:41:09.971Z,7.57
2022-08-25T10:45:00.579Z,6.55
2022-08-25T10:48:34.957Z,6.85
2022-08-25T10:51:54.636Z,7.22
2022-08-25T10:55:13.224Z,6.78
2022-08-25T10:58:51.254Z,7.07
2022-08-25T11:02:22.706Z,7.45
2022-08-25T11:05:44.031Z,7.00
2022-08-25T11:08:53.439Z,6.97
2022-08-25T11:11:59.561Z,7.85
2022-08-25T11:15:03.656Z,8.20
2022-08-25T11:18:14.969Z,6.80
2022-08-25T11:21:20.390Z,7.43
2022-08-25T11:24:39.163Z,7.50
2022-08-25T11:28:11.950Z,6.75
2022-08-25T11:31:10.586Z,9.05
2022-08-25T11:34:14.427Z,8.20
2022-08-25T11:37:26.034Z,7.57
2022-08-25T11:40:38.784Z,6.53
2022-08-25T11:44:20.428Z,6.80
2022-08-25T11:47:45.589Z,5.95
2022-08-25T11:51:03.317Z,5.00
2022-08-25T11:54:30.263Z,5.65
2022-08-25T11:57:27.222Z,5.57
2022-08-25T12:00:42.650Z,5.70
2022-08-25T12:03:39.440Z,4.65
2022-08-25T12:06:36.919Z,5.90
2022-08-25T12:09:49.861Z,5.43
2022-08-25T12:12:46.631Z,6.10
2022-08-25T12:15:43.320Z,6.00
2022-08-25T12:18:45.823Z,5.65
2022-08-25T12:21:43.255Z,5.80
2022-08-25T12:24:47.931Z,6.38
2022-08-25T12:28:23.307Z,6.45
2022-08-25T12:31:47.596Z,5.85
2022-08-25T12:35:10.280Z,5.53
2022-08-25T12:38:31.739Z,6.05
2022-08-25T12:41:33.759Z,6.30
2022-08-25T12:44:44.673Z,6.07
2022-08-25T12:47:47.541Z,6.32
2022-08-25T12:50:48.170Z,5.85
2022-08-25T12:54:12.419Z,6.30
2022-08-25T12:57:44.637Z,5.88
2022-08-25T13:01:39.284Z,6.03
2022-08-25T13:05:19.619Z,7.00
2022-08-25T13:08:33.924Z,6.43
2022-08-25T13:11:46.675Z,7.88
2022-08-25T13:14:52.198Z,6.28
2022-08-25T13:17:49.195Z,7.13
2022-08-25T13:21:28.371Z,6.68
2022-08-25T13:24:41.688Z,6.47
2022-08-25T13:27:39.818Z,6.82
2022-08-25T13:30:39.127Z,6.72
2022-08-25T13:37:04.051Z,7.07
2022-08-25T13:40:12.824Z,7.13
2022-08-25T13:43:13.349Z,7.45
2022-08-25T13:46:10.710Z,6.72
2022-08-25T13:49:09.321Z,6.80
2022-08-25T13:52:07.263Z,6.57
2022-08-25T13:55:04.850Z,6.30
2022-08-25T13:58:03.615Z,5.53
2022-08-25T14:01:48.133Z,5.90
2022-08-25T14:04:50.538Z,6.40
2022-08-25T14:08:15.745Z,6.65
2022-08-25T14:11:34.340Z,6.00
2022-08-25T14:14:35.149Z,6.28
2022-08-25T14:17:39.592Z,6.00
2022-08-25T14:20:43.258Z,6.63
2022-08-25T14:23:42.219Z,6.05
2022-08-25T14:26:39.178Z,5.85
2022-08-25T14:29:52.900Z,6.10
2022-08-25T14:32:51.041Z,5.50
2022-08-25T14:35:51.555Z,6.00
2022-08-25T14:38:54.635Z,5.38
2022-08-25T14:41:53.901Z,6.47
2022-08-25T14:44:50.847Z,6.22
2022-08-25T14:47:49.824Z,6.88
2022-08-25T14:50:47.110Z,6.53
2022-08-25T14:53:47.847Z,5.78
2022-08-25T14:56:48.284Z,6.05
2022-08-25T14:59:45.137Z,6.20
2022-08-25T15:02:47.934Z,6.07
2022-08-25T15:05:46.197Z,6.38
2022-08-25T15:09:03.552Z,6.18
2022-08-25T15:12:00.443Z,6.38
2022-08-25T15:14:58.201Z,5.38
2022-08-25T15:17:58.116Z,5.40
2022-08-25T15:20:57.442Z,5.57
2022-08-25T15:23:56.540Z,6.75
2022-08-25T15:26:57.581Z,6.20
2022-08-25T15:29:54.425Z,6.20
2022-08-25T15:32:52.006Z,5.70
2022-08-25T15:35:53.492Z,5.38
2022-08-25T15:38:51.208Z,5.88
2022-08-25T15:41:54.140Z,5.95
2022-08-25T15:44:53.387Z,5.72
2022-08-25T15:47:53.877Z,6.53
2022-08-25T15:50:56.781Z,5.30
2022-08-25T15:53:53.963Z,5.80
2022-08-25T15:56:52.487Z,6.80
2022-08-25T15:59:49.364Z,5.70
2022-08-25T16:02:46.504Z,5.40
2022-08-25T16:05:47.957Z,6.70
2022-08-25T16:08:45.704Z,6.70
2022-08-25T16:11:43.393Z,6.88
2022-08-25T16:14:40.578Z,7.20
2022-08-25T16:17:37.426Z,7.00
2022-08-25T16:20:37.832Z,6.32
2022-08-25T16:23:34.689Z,6.63
2022-08-25T16:26:32.631Z,6.88
2022-08-25T16:29:35.887Z,5.80
2022-08-25T16:32:32.963Z,5.93
2022-08-25T16:35:29.858Z,5.57
2022-08-25T16:38:26.696Z,5.85
2022-08-25T16:41:33.848Z,5.10
2022-08-25T16:44:30.768Z,5.95
2022-08-25T16:47:27.616Z,6.00
2022-08-25T16:50:25.472Z,6.40
2022-08-25T16:53:40.896Z,6.20
2022-08-25T16:56:42.735Z,6.20
2022-08-25T16:59:39.809Z,8.13
2022-08-25T17:02:37.366Z,5.80
2022-08-25T17:05:41.876Z,6.32
2022-08-25T17:08:39.307Z,6.90
2022-08-25T17:11:46.888Z,6.85
2022-08-25T17:14:43.727Z,7.45
2022-08-25T17:17:40.574Z,6.45
2022-08-25T17:20:38.242Z,6.32
2022-08-25T17:23:36.701Z,7.05
2022-08-25T17:26:36.972Z,6.07
2022-08-25T17:29:34.977Z,6.70
2022-08-25T17:32:31.838Z,7.28
2022-08-25T17:35:29.578Z,7.53
2022-08-25T17:38:28.442Z,7.90
2022-08-25T17:41:25.904Z,7.80
2022-08-25T17:44:22.790Z,8.27
2022-08-25T17:47:19.648Z,8.80
2022-08-25T17:50:16.968Z,7.97
2022-08-25T17:53:14.393Z,8.70
2022-08-25T17:56:19.113Z,7.53
2022-08-25T17:59:16.798Z,8.50
2022-08-25T18:02:14.467Z,8.35
2022-08-25T18:05:12.953Z,7.57
2022-08-25T18:08:10.491Z,7.90
2022-08-25T18:11:08.470Z,7.00
2022-08-25T18:14:05.448Z,7.72
2022-08-25T18:17:03.711Z,7.95
2022-08-25T18:20:06.118Z,7.20
2022-08-25T18:23:05.814Z,6.88
2022-08-25T18:26:06.748Z,7.05
2022-08-25T18:29:05.100Z,7.10
2022-08-25T18:32:02.824Z,6.63
2022-08-25T18:35:02.021Z,7.00
2022-08-25T18:38:17.294Z,7.28
2022-08-25T18:41:14.393Z,7.57
2022-08-25T18:44:11.577Z,7.80
2022-08-25T18:47:08.418Z,7.78
2022-08-25T18:50:06.173Z,8.50
2022-08-25T18:53:04.411Z,8.65
2022-08-25T18:56:03.589Z,8.60
2022-08-25T18:59:00.476Z,8.05
2022-08-25T19:01:57.624Z,8.23
2022-08-25T19:04:54.601Z,8.70
2022-08-25T19:07:52.059Z,8.50
2022-08-25T19:10:52.793Z,8.80
2022-08-25T19:13:50.803Z,10.20
2022-08-25T19:16:47.673Z,9.77
2022-08-25T19:19:44.911Z,9.60
2022-08-25T19:22:42.391Z,9.18
2022-08-25T19:25:41.620Z,9.20
2022-08-25T19:28:38.712Z,9.75
2022-08-25T19:31:45.599Z,8.77
2022-08-25T19:34:47.272Z,9.23
2022-08-25T19:37:49.818Z,10.10
2022-08-25T19:40:49.899Z,9.98
2022-08-25T19:43:55.804Z,9.70
2022-08-25T19:46:54.385Z,9.73
2022-08-25T19:49:51.693Z,10.00
2022-08-25T19:52:49.950Z,10.55
2022-08-25T19:55:47.081Z,8.98
2022-08-25T19:58:43.935Z,9.75
2022-08-25T20:01:41.984Z,9.43
2022-08-25T20:04:38.867Z,10.15
2022-08-25T20:07:37.055Z,10.98
2022-08-25T20:10:39.489Z,10.57
2022-08-25T20:13:39.020Z,9.48
2022-08-25T20:16:37.906Z,9.75
2022-08-25T20:19:34.771Z,10.70
2022-08-25T20:22:33.172Z,10.07
2022-08-25T20:25:36.779Z,10.48
2022-08-25T20:28:33.903Z,10.38
2022-08-25T20:31:31.760Z,10.70
2022-08-25T20:34:29.763Z,11.75
2022-08-25T20:37:29.880Z,10.77
2022-08-25T20:40:30.094Z,10.75
2022-08-25T20:43:29.509Z,9.88
2022-08-25T20:46:26.476Z,10.38
2022-08-25T20:49:26.718Z,9.98
2022-08-25T20:52:23.571Z,10.27
2022-08-25T20:55:21.789Z,10.80
2022-08-25T20:58:18.627Z,9.38
2022-08-25T21:01:24.132Z,10.07
2022-08-25T21:04:23.912Z,10.15
2022-08-25T21:07:23.923Z,10.73
2022-08-25T21:10:21.115Z,10.50
2022-08-25T21:13:17.935Z,10.13
2022-08-25T21:16:15.114Z,9.30
2022-08-25T21:19:15.084Z,9.70
2022-08-25T21:22:12.558Z,9.80
2022-08-25T21:25:10.310Z,11.07
2022-08-25T21:28:07.775Z,9.13
2022-08-25T21:31:08.379Z,10.13
2022-08-25T21:34:05.477Z,9.95
2022-08-25T21:37:02.371Z,9.40
2022-08-25T21:39:59.265Z,9.02
2022-08-25T21:42:56.719Z,10.32
2022-08-25T21:45:53.639Z,9.18
2022-08-25T21:48:53.104Z,10.18
2022-08-25T21:51:59.326Z,10.93
2022-08-25T21:54:57.575Z,10.00
2022-08-25T21:57:54.786Z,10.30
2022-08-25T22:00:51.713Z,8.73
2022-08-25T22:03:50.281Z,10.32
2022-08-25T22:06:47.785Z,10.25
2022-08-25T22:09:44.646Z,9.52
2022-08-25T22:12:41.579Z,10.50
2022-08-25T22:15:38.423Z,10.32
2022-08-25T22:18:35.268Z,10.13
2022-08-25T22:21:32.715Z,10.85
2022-08-25T22:24:29.645Z,9.68
2022-08-25T22:27:26.562Z,10.63
2022-08-25T22:30:25.409Z,10.10
2022-08-25T22:33:26.188Z,9.80
2022-08-25T22:36:30.694Z,10.32
2022-08-25T22:39:28.308Z,10.90
2022-08-25T22:42:25.516Z,9.73
2022-08-25T22:45:22.684Z,10.13
2022-08-25T22:48:20.771Z,9.68
2022-08-25T22:51:22.282Z,10.52
2022-08-25T22:54:19.138Z,10.85
2022-08-25T22:57:16.047Z,10.18
2022-08-25T23:00:16.712Z,10.33
2022-08-25T23:03:13.640Z,10.02
2022-08-25T23:06:24.835Z,10.32
2022-08-25T23:09:22.301Z,10.82
2022-08-25T23:12:23.576Z,11.23
2022-08-25T23:15:20.415Z,10.48
2022-08-25T23:18:18.408Z,11.43
2022-08-25T23:21:41.055Z,10.85
2022-08-25T23:24:46.061Z,9.20
2022-08-25T23:27:42.914Z,10.35
2022-08-25T23:30:42.783Z,10.73
2022-08-25T23:33:41.965Z,11.02
2022-08-25T23:36:38.940Z,10.00
2022-08-25T23:39:36.139Z,10.13
2022-08-25T23:42:36.137Z,10.45
2022-08-25T23:45:34.301Z,11.13
2022-08-25T23:48:31.564Z,9.45
2022-08-25T23:51:34.472Z,8.90
2022-08-25T23:54:34.144Z,10.73
2022-08-25T23:57:31.931Z,9.75
